createdAt,value
2017-11-19T00:00:22.499Z,987.84
2017-11-19T00:01:29.538Z,987.83
2017-11-19T00:02:36.480Z,987.78
2017-11-19T00:03:43.334Z,987.81
2017-11-19T00:04:50.315Z,987.76
2017-11-19T00:05:57.274Z,987.73
2017-11-19T00:07:04.083Z,987.80
2017-11-19T00:08:11.059Z,987.74
2017-11-19T00:09:17.860Z,987.75
2017-11-19T00:10:24.805Z,987.72
2017-11-19T00:11:32.169Z,987.67
2017-11-19T00:12:38.591Z,987.69
2017-11-19T00:13:45.365Z,987.67
2017-11-19T00:14:52.299Z,987.73
2017-11-19T00:15:59.245Z,987.71
2017-11-19T00:17:06.054Z,987.69
2017-11-19T00:18:12.930Z,987.63
2017-11-19T00:19:19.676Z,987.58
2017-11-19T00:20:26.546Z,987.62
2017-11-19T00:21:33.558Z,987.65
2017-11-19T00:22:40.397Z,987.59
2017-11-19T00:23:47.323Z,987.60
2017-11-19T00:24:54.310Z,987.57
2017-11-19T00:26:01.357Z,987.62
2017-11-19T00:27:08.229Z,987.57
2017-11-19T00:28:14.971Z,987.52
2017-11-19T00:29:21.863Z,987.46
2017-11-19T00:30:28.977Z,987.44
2017-11-19T00:31:35.939Z,987.45
2017-11-19T00:32:42.959Z,987.41
2017-11-19T00:33:49.987Z,987.47
2017-11-19T00:34:57.065Z,987.45
2017-11-19T00:36:04.274Z,987.49
2017-11-19T00:37:10.727Z,987.44
2017-11-19T00:38:17.631Z,987.53
2017-11-19T00:39:24.482Z,987.52
2017-11-19T00:40:31.198Z,987.49
2017-11-19T00:41:38.017Z,987.39
2017-11-19T00:42:44.856Z,987.37
2017-11-19T00:43:51.599Z,987.38
2017-11-19T00:44:58.534Z,987.44
2017-11-19T00:46:05.289Z,987.39
2017-11-19T00:47:12.231Z,987.42
2017-11-19T00:48:18.988Z,987.36
2017-11-19T00:49:25.834Z,987.36
2017-11-19T00:50:32.647Z,987.38
2017-11-19T00:51:39.388Z,987.39
2017-11-19T00:52:46.177Z,987.34
2017-11-19T00:53:53.532Z,987.34
2017-11-19T00:54:59.813Z,987.42
2017-11-19T00:56:06.592Z,987.38
2017-11-19T00:57:13.475Z,987.44
2017-11-19T00:58:20.303Z,987.41
2017-11-19T00:59:27.310Z,987.42
2017-11-19T01:00:34.177Z,987.39
2017-11-19T01:01:41.014Z,987.42
2017-11-19T01:02:48.027Z,987.39
2017-11-19T01:03:54.850Z,987.45
2017-11-19T01:05:01.736Z,987.38
2017-11-19T01:06:08.498Z,987.27
2017-11-19T01:07:15.267Z,987.29
2017-11-19T01:08:22.085Z,987.35
2017-11-19T01:09:28.957Z,987.19
2017-11-19T01:10:35.785Z,987.21
2017-11-19T01:11:42.549Z,987.23
2017-11-19T01:12:49.605Z,987.19
2017-11-19T01:13:56.462Z,987.21
2017-11-19T01:15:03.338Z,987.24
2017-11-19T01:16:10.190Z,987.29
2017-11-19T01:17:17.048Z,987.31
2017-11-19T01:18:23.939Z,987.33
2017-11-19T01:19:30.822Z,987.33
2017-11-19T01:20:37.574Z,987.41
2017-11-19T01:21:44.458Z,987.31
2017-11-19T01:22:51.350Z,987.33
2017-11-19T01:23:58.173Z,987.29
2017-11-19T01:25:04.994Z,987.27
2017-11-19T01:26:11.859Z,987.13
2017-11-19T01:27:18.819Z,987.16
2017-11-19T01:28:25.593Z,987.16
2017-11-19T01:29:32.382Z,987.25
2017-11-19T01:30:39.129Z,987.22
2017-11-19T01:31:45.857Z,987.13
2017-11-19T01:32:53.170Z,987.17
2017-11-19T01:34:00.079Z,987.08
2017-11-19T01:35:07.138Z,987.09
2017-11-19T01:36:13.919Z,987.06
2017-11-19T01:37:20.791Z,987.10
2017-11-19T01:38:27.561Z,987.06
2017-11-19T01:39:34.268Z,987.11
2017-11-19T01:40:41.397Z,987.12
2017-11-19T01:41:48.207Z,987.18
2017-11-19T01:42:55.230Z,987.15
2017-11-19T01:44:02.074Z,987.20
2017-11-19T01:45:08.806Z,987.12
2017-11-19T01:46:15.692Z,987.18
2017-11-19T01:47:22.686Z,987.15
2017-11-19T01:48:29.434Z,987.03
2017-11-19T01:49:36.438Z,987.12
2017-11-19T01:50:43.269Z,987.05
2017-11-19T01:51:50.142Z,987.07
2017-11-19T01:52:56.889Z,987.10
2017-11-19T01:54:03.686Z,987.14
2017-11-19T01:55:10.539Z,987.14
2017-11-19T01:56:17.324Z,987.10
2017-11-19T01:57:24.171Z,987.10
2017-11-19T01:58:31.014Z,987.11
2017-11-19T01:59:37.914Z,987.19
2017-11-19T02:00:44.811Z,987.16
2017-11-19T02:01:51.786Z,987.16
2017-11-19T02:02:58.744Z,987.05
2017-11-19T02:04:05.694Z,987.04
2017-11-19T02:05:12.731Z,987.04
2017-11-19T02:06:19.796Z,986.98
2017-11-19T02:07:26.662Z,986.92
2017-11-19T02:08:33.471Z,986.95
2017-11-19T02:09:40.489Z,986.99
2017-11-19T02:10:47.249Z,987.02
2017-11-19T02:11:54.271Z,986.93
2017-11-19T02:13:01.226Z,986.96
2017-11-19T02:14:07.979Z,986.99
2017-11-19T02:15:14.920Z,986.92
2017-11-19T02:16:21.911Z,986.85
2017-11-19T02:17:28.889Z,986.90
2017-11-19T02:18:35.803Z,986.88
2017-11-19T02:19:42.997Z,986.87
2017-11-19T02:20:49.617Z,986.95
2017-11-19T02:21:56.617Z,986.90
2017-11-19T02:23:03.571Z,987.02
2017-11-19T02:24:10.550Z,987.04
2017-11-19T02:25:17.359Z,987.17
2017-11-19T02:26:24.251Z,987.09
2017-11-19T02:27:30.908Z,987.15
2017-11-19T02:28:37.817Z,987.20
2017-11-19T02:29:44.566Z,987.29
2017-11-19T02:30:51.352Z,987.38
2017-11-19T02:31:58.320Z,987.36
2017-11-19T02:33:05.326Z,987.29
2017-11-19T02:34:12.183Z,987.27
2017-11-19T02:35:19.030Z,987.36
2017-11-19T02:36:26.069Z,987.38
2017-11-19T02:37:33.197Z,987.31
2017-11-19T02:38:40.064Z,987.38
2017-11-19T02:39:46.859Z,987.25
2017-11-19T02:40:53.727Z,987.33
2017-11-19T02:42:00.596Z,987.27
2017-11-19T02:43:07.610Z,987.18
2017-11-19T02:44:14.444Z,987.35
2017-11-19T02:45:21.176Z,987.32
2017-11-19T02:46:27.946Z,987.31
2017-11-19T02:47:34.958Z,987.32
2017-11-19T02:48:41.902Z,987.36
2017-11-19T02:49:48.759Z,987.36
2017-11-19T02:50:55.674Z,987.27
2017-11-19T02:52:02.413Z,987.38
2017-11-19T02:53:09.397Z,987.35
2017-11-19T02:54:16.465Z,987.36
2017-11-19T02:55:23.233Z,987.38
2017-11-19T02:56:30.025Z,987.35
2017-11-19T02:57:36.950Z,987.31
2017-11-19T02:58:43.772Z,987.38
2017-11-19T02:59:50.548Z,987.37
2017-11-19T03:00:57.333Z,987.34
2017-11-19T03:02:04.118Z,987.36
2017-11-19T03:03:10.987Z,987.38
2017-11-19T03:04:17.998Z,987.43
2017-11-19T03:05:24.912Z,987.41
2017-11-19T03:06:31.730Z,987.45
2017-11-19T03:07:38.613Z,987.32
2017-11-19T03:08:45.449Z,987.41
2017-11-19T03:09:52.294Z,987.40
2017-11-19T03:10:59.161Z,987.33
2017-11-19T03:12:06.189Z,987.42
2017-11-19T03:13:12.978Z,987.50
2017-11-19T03:14:19.979Z,987.47
2017-11-19T03:15:26.857Z,987.41
2017-11-19T03:16:33.990Z,987.48
2017-11-19T03:17:40.858Z,987.47
2017-11-19T03:18:47.722Z,987.52
2017-11-19T03:19:54.543Z,987.52
2017-11-19T03:21:01.317Z,987.60
2017-11-19T03:22:08.098Z,987.63
2017-11-19T03:23:15.141Z,987.59
2017-11-19T03:24:22.002Z,987.71
2017-11-19T03:25:28.886Z,987.72
2017-11-19T03:26:35.702Z,987.58
2017-11-19T03:27:42.703Z,987.66
2017-11-19T03:28:49.542Z,987.67
2017-11-19T03:29:56.466Z,987.67
2017-11-19T03:31:03.210Z,987.61
2017-11-19T03:32:10.073Z,987.62
2017-11-19T03:33:16.839Z,987.66
2017-11-19T03:34:23.661Z,987.64
2017-11-19T03:35:30.413Z,987.62
2017-11-19T03:36:37.191Z,987.65
2017-11-19T03:37:43.958Z,987.66
2017-11-19T03:38:50.767Z,987.65
2017-11-19T03:39:57.541Z,987.65
2017-11-19T03:41:04.373Z,987.63
2017-11-19T03:42:11.210Z,987.65
2017-11-19T03:43:18.125Z,987.68
2017-11-19T03:44:25.035Z,987.69
2017-11-19T03:45:32.002Z,987.68
2017-11-19T03:46:38.976Z,987.79
2017-11-19T03:47:45.641Z,987.75
2017-11-19T03:48:52.538Z,987.82
2017-11-19T03:49:59.377Z,987.68
2017-11-19T03:51:06.357Z,987.83
2017-11-19T03:52:13.162Z,987.83
2017-11-19T03:53:19.868Z,987.83
2017-11-19T03:54:26.574Z,987.83
2017-11-19T03:55:33.539Z,987.90
2017-11-19T03:56:40.413Z,987.79
2017-11-19T03:57:47.289Z,987.82
2017-11-19T03:58:54.066Z,987.92
2017-11-19T04:00:00.868Z,987.82
2017-11-19T04:01:07.891Z,987.92
2017-11-19T04:02:14.770Z,987.90
2017-11-19T04:03:21.682Z,987.94
2017-11-19T04:04:28.461Z,987.90
2017-11-19T04:05:35.454Z,987.96
2017-11-19T04:06:42.245Z,987.94
2017-11-19T04:07:49.226Z,987.83
2017-11-19T04:08:56.033Z,987.95
2017-11-19T04:10:02.958Z,987.91
2017-11-19T04:11:09.879Z,987.89
2017-11-19T04:12:16.826Z,987.91
2017-11-19T04:13:23.734Z,987.92
2017-11-19T04:14:30.514Z,987.84
2017-11-19T04:15:37.387Z,987.91
2017-11-19T04:16:44.194Z,987.98
2017-11-19T04:17:51.104Z,987.98
2017-11-19T04:18:57.985Z,987.99
2017-11-19T04:20:04.750Z,987.96
2017-11-19T04:21:11.578Z,987.94
2017-11-19T04:22:18.623Z,987.93
2017-11-19T04:23:25.440Z,987.91
2017-11-19T04:24:32.271Z,987.98
2017-11-19T04:25:39.121Z,987.98
2017-11-19T04:26:45.958Z,988.01
2017-11-19T04:27:52.775Z,987.98
2017-11-19T04:28:59.829Z,988.09
2017-11-19T04:30:06.793Z,988.05
2017-11-19T04:31:13.705Z,988.09
2017-11-19T04:32:21.110Z,988.08
2017-11-19T04:33:27.361Z,988.09
2017-11-19T04:34:34.437Z,988.17
2017-11-19T04:35:41.332Z,988.15
2017-11-19T04:36:48.269Z,988.17
2017-11-19T04:37:55.160Z,988.14
2017-11-19T04:39:02.178Z,988.17
2017-11-19T04:40:09.319Z,988.12
2017-11-19T04:41:16.126Z,988.15
2017-11-19T04:42:22.923Z,988.17
2017-11-19T04:43:29.774Z,988.12
2017-11-19T04:44:36.723Z,988.23
2017-11-19T04:45:43.601Z,988.26
2017-11-19T04:46:50.417Z,988.24
2017-11-19T04:47:57.255Z,988.31
2017-11-19T04:49:04.091Z,988.28
2017-11-19T04:50:11.101Z,988.29
2017-11-19T04:51:17.924Z,988.39
2017-11-19T04:52:24.791Z,988.28
2017-11-19T04:53:31.702Z,988.33
2017-11-19T04:54:38.666Z,988.25
2017-11-19T04:55:45.374Z,988.25
2017-11-19T04:56:52.622Z,988.22
2017-11-19T04:57:59.507Z,988.26
2017-11-19T04:59:06.322Z,988.41
2017-11-19T05:00:13.049Z,988.39
2017-11-19T05:01:19.866Z,988.27
2017-11-19T05:02:26.663Z,988.29
2017-11-19T05:03:33.398Z,988.30
2017-11-19T05:04:40.149Z,988.31
2017-11-19T05:05:46.973Z,988.32
2017-11-19T05:06:54.058Z,988.33
2017-11-19T05:08:00.866Z,988.24
2017-11-19T05:09:07.955Z,988.23
2017-11-19T05:10:14.846Z,988.25
2017-11-19T05:11:21.629Z,988.20
2017-11-19T05:12:28.422Z,988.29
2017-11-19T05:13:35.180Z,988.38
2017-11-19T05:14:41.993Z,988.30
2017-11-19T05:15:49.066Z,988.36
2017-11-19T05:16:55.889Z,988.24
2017-11-19T05:18:02.870Z,988.32
2017-11-19T05:19:09.626Z,988.32
2017-11-19T05:20:16.502Z,988.36
2017-11-19T05:21:23.478Z,988.38
2017-11-19T05:22:30.372Z,988.43
2017-11-19T05:23:37.348Z,988.41
2017-11-19T05:24:44.186Z,988.49
2017-11-19T05:25:50.902Z,988.44
2017-11-19T05:26:57.840Z,988.40
2017-11-19T05:28:04.583Z,988.44
2017-11-19T05:29:11.593Z,988.41
2017-11-19T05:30:18.510Z,988.46
2017-11-19T05:31:25.406Z,988.42
2017-11-19T05:32:32.223Z,988.40
2017-11-19T05:33:39.081Z,988.41
2017-11-19T05:34:46.206Z,988.48
2017-11-19T05:35:53.158Z,988.46
2017-11-19T05:37:00.047Z,988.43
2017-11-19T05:38:06.980Z,988.47
2017-11-19T05:39:13.798Z,988.49
2017-11-19T05:40:21.067Z,988.49
2017-11-19T05:41:27.495Z,988.50
2017-11-19T05:42:34.243Z,988.46
2017-11-19T05:43:41.646Z,988.52
2017-11-19T05:44:48.373Z,988.40
2017-11-19T05:45:55.164Z,988.50
2017-11-19T05:47:02.061Z,988.46
2017-11-19T05:48:09.090Z,988.44
2017-11-19T05:49:15.982Z,988.39
2017-11-19T05:50:23.034Z,988.49
2017-11-19T05:51:29.813Z,988.47
2017-11-19T05:52:36.591Z,988.50
2017-11-19T05:53:43.385Z,988.48
2017-11-19T05:54:50.198Z,988.45
2017-11-19T05:55:56.989Z,988.49
2017-11-19T05:57:03.887Z,988.49
2017-11-19T05:58:10.807Z,988.59
2017-11-19T05:59:17.882Z,988.52
2017-11-19T06:00:24.767Z,988.52
2017-11-19T06:01:31.927Z,988.56
2017-11-19T06:02:39.515Z,988.64
2017-11-19T06:03:45.754Z,988.61
2017-11-19T06:04:52.638Z,988.64
2017-11-19T06:05:59.678Z,988.64
2017-11-19T06:07:06.532Z,988.67
2017-11-19T06:08:13.577Z,988.78
2017-11-19T06:09:20.517Z,988.72
2017-11-19T06:10:27.557Z,988.75
2017-11-19T06:11:34.421Z,988.79
2017-11-19T06:12:41.339Z,988.83
2017-11-19T06:13:48.338Z,988.76
2017-11-19T06:14:56.029Z,988.85
2017-11-19T06:16:02.106Z,988.88
2017-11-19T06:17:09.002Z,988.75
2017-11-19T06:18:15.966Z,988.72
2017-11-19T06:19:22.729Z,988.87
2017-11-19T06:20:29.802Z,988.87
2017-11-19T06:21:36.615Z,988.87
2017-11-19T06:22:43.456Z,988.96
2017-11-19T06:23:50.422Z,988.94
2017-11-19T06:24:57.238Z,989.02
2017-11-19T06:26:04.166Z,989.04
2017-11-19T06:27:11.138Z,989.01
2017-11-19T06:28:18.034Z,989.02
2017-11-19T06:29:25.054Z,989.13
2017-11-19T06:30:31.841Z,989.15
2017-11-19T06:31:38.716Z,989.23
2017-11-19T06:32:45.579Z,989.20
2017-11-19T06:33:52.623Z,989.25
2017-11-19T06:34:59.222Z,989.14
2017-11-19T06:36:06.412Z,989.19
2017-11-19T06:37:13.382Z,989.23
2017-11-19T06:38:20.488Z,989.23
2017-11-19T06:39:27.408Z,989.20
2017-11-19T06:40:34.492Z,989.31
2017-11-19T06:41:41.924Z,989.30
2017-11-19T06:42:48.329Z,989.24
2017-11-19T06:43:55.160Z,989.24
2017-11-19T06:45:02.086Z,989.28
2017-11-19T06:46:08.938Z,989.32
2017-11-19T06:47:15.938Z,989.36
2017-11-19T06:48:22.789Z,989.33
2017-11-19T06:49:29.689Z,989.36
2017-11-19T06:50:36.553Z,989.30
2017-11-19T06:51:43.331Z,989.36
2017-11-19T06:52:50.599Z,989.37
2017-11-19T06:53:57.406Z,989.32
2017-11-19T06:55:04.346Z,989.39
2017-11-19T06:56:11.277Z,989.44
2017-11-19T06:57:18.247Z,989.43
2017-11-19T06:58:25.222Z,989.42
2017-11-19T06:59:32.039Z,989.41
2017-11-19T07:00:38.945Z,989.44
2017-11-19T07:01:45.754Z,989.47
2017-11-19T07:02:52.780Z,989.47
2017-11-19T07:03:59.654Z,989.47
2017-11-19T07:05:06.393Z,989.55
2017-11-19T07:06:13.221Z,989.51
2017-11-19T07:07:20.140Z,989.54
2017-11-19T07:08:26.993Z,989.52
2017-11-19T07:09:34.026Z,989.57
2017-11-19T07:10:41.022Z,989.55
2017-11-19T07:11:48.054Z,989.55
2017-11-19T07:12:54.882Z,989.61
2017-11-19T07:14:01.845Z,989.49
2017-11-19T07:15:08.659Z,989.63
2017-11-19T07:16:15.525Z,989.63
2017-11-19T07:17:22.515Z,989.62
2017-11-19T07:18:29.077Z,989.61
2017-11-19T07:19:35.982Z,989.60
2017-11-19T07:20:42.883Z,989.60
2017-11-19T07:21:49.915Z,989.62
2017-11-19T07:22:56.674Z,989.61
2017-11-19T07:24:03.649Z,989.65
2017-11-19T07:25:10.592Z,989.62
2017-11-19T07:26:17.365Z,989.63
2017-11-19T07:27:24.425Z,989.67
2017-11-19T07:28:31.578Z,989.67
2017-11-19T07:29:38.556Z,989.66
2017-11-19T07:30:45.529Z,989.60
2017-11-19T07:31:52.567Z,989.63
2017-11-19T07:32:59.478Z,989.69
2017-11-19T07:34:06.460Z,989.71
2017-11-19T07:35:13.258Z,989.72
2017-11-19T07:36:20.124Z,989.84
2017-11-19T07:37:27.119Z,989.79
2017-11-19T07:38:33.987Z,989.87
2017-11-19T07:39:40.887Z,989.85
2017-11-19T07:40:47.850Z,989.84
2017-11-19T07:41:55.027Z,989.84
2017-11-19T07:43:01.886Z,989.94
2017-11-19T07:44:08.902Z,989.87
2017-11-19T07:45:15.970Z,989.97
2017-11-19T07:46:22.470Z,989.96
2017-11-19T07:47:29.289Z,989.92
2017-11-19T07:48:36.206Z,989.97
2017-11-19T07:49:43.049Z,990.03
2017-11-19T07:50:50.025Z,989.98
2017-11-19T07:51:57.129Z,990.04
2017-11-19T07:53:04.044Z,990.09
2017-11-19T07:54:10.899Z,990.04
2017-11-19T07:55:17.622Z,990.07
2017-11-19T07:56:24.682Z,989.98
2017-11-19T07:57:31.746Z,990.15
2017-11-19T07:58:38.202Z,990.10
2017-11-19T07:59:45.189Z,990.09
2017-11-19T08:00:52.175Z,990.11
2017-11-19T08:01:59.105Z,990.14
2017-11-19T08:03:06.184Z,990.15
2017-11-19T08:04:13.181Z,990.09
2017-11-19T08:05:20.234Z,990.09
2017-11-19T08:06:27.290Z,990.08
2017-11-19T08:07:34.023Z,990.15
2017-11-19T08:08:40.920Z,990.11
2017-11-19T08:09:48.030Z,990.22
2017-11-19T08:10:55.107Z,990.25
2017-11-19T08:12:02.081Z,990.22
2017-11-19T08:13:09.127Z,990.28
2017-11-19T08:14:15.829Z,990.29
2017-11-19T08:15:22.678Z,990.36
2017-11-19T08:16:29.673Z,990.32
2017-11-19T08:17:36.422Z,990.27
2017-11-19T08:18:43.155Z,990.25
2017-11-19T08:19:50.022Z,990.25
2017-11-19T08:20:56.846Z,990.28
2017-11-19T08:22:03.742Z,990.23
2017-11-19T08:23:10.522Z,990.34
2017-11-19T08:24:17.321Z,990.30
2017-11-19T08:25:24.173Z,990.39
2017-11-19T08:26:31.155Z,990.30
2017-11-19T08:27:37.961Z,990.33
2017-11-19T08:28:45.215Z,990.29
2017-11-19T08:29:51.745Z,990.34
2017-11-19T08:30:58.596Z,990.36
2017-11-19T08:32:05.361Z,990.39
2017-11-19T08:33:12.201Z,990.41
2017-11-19T08:34:19.115Z,990.33
2017-11-19T08:35:26.173Z,990.33
2017-11-19T08:36:32.986Z,990.29
2017-11-19T08:37:39.752Z,990.33
2017-11-19T08:38:46.682Z,990.33
2017-11-19T08:39:53.569Z,990.25
2017-11-19T08:41:00.569Z,990.38
2017-11-19T08:42:07.417Z,990.33
2017-11-19T08:43:14.458Z,990.42
2017-11-19T08:44:21.236Z,990.37
2017-11-19T08:45:28.060Z,990.40
2017-11-19T08:46:35.168Z,990.45
2017-11-19T08:47:42.029Z,990.38
2017-11-19T08:48:48.999Z,990.43
2017-11-19T08:49:55.922Z,990.53
2017-11-19T08:51:02.690Z,990.55
2017-11-19T08:52:09.693Z,990.55
2017-11-19T08:53:16.613Z,990.53
2017-11-19T08:54:23.358Z,990.52
2017-11-19T08:55:30.163Z,990.58
2017-11-19T08:56:36.969Z,990.56
2017-11-19T08:57:43.706Z,990.59
2017-11-19T08:58:50.543Z,990.57
2017-11-19T08:59:57.467Z,990.57
2017-11-19T09:01:04.162Z,990.52
2017-11-19T09:02:11.110Z,990.60
2017-11-19T09:03:18.075Z,990.59
2017-11-19T09:04:24.965Z,990.63
2017-11-19T09:05:31.873Z,990.64
2017-11-19T09:06:38.670Z,990.63
2017-11-19T09:07:45.878Z,990.73
2017-11-19T09:08:53.146Z,990.66
2017-11-19T09:09:58.970Z,990.75
2017-11-19T09:11:05.898Z,990.70
2017-11-19T09:12:12.914Z,990.69
2017-11-19T09:13:19.942Z,990.70
2017-11-19T09:14:26.847Z,990.68
2017-11-19T09:15:33.701Z,990.73
2017-11-19T09:16:40.478Z,990.83
2017-11-19T09:17:47.419Z,990.74
2017-11-19T09:18:54.414Z,990.71
2017-11-19T09:20:01.139Z,990.83
2017-11-19T09:21:07.913Z,990.78
2017-11-19T09:22:14.710Z,990.74
2017-11-19T09:23:21.425Z,990.75
2017-11-19T09:24:28.197Z,990.71
2017-11-19T09:25:34.991Z,990.84
2017-11-19T09:26:41.763Z,990.88
2017-11-19T09:27:48.573Z,990.81
2017-11-19T09:28:55.310Z,990.95
2017-11-19T09:30:02.037Z,990.93
2017-11-19T09:31:08.953Z,990.93
2017-11-19T09:32:15.665Z,990.95
2017-11-19T09:33:22.424Z,991.01
2017-11-19T09:34:29.206Z,991.06
2017-11-19T09:35:36.022Z,991.03
2017-11-19T09:36:42.864Z,991.06
2017-11-19T09:37:49.727Z,991.00
2017-11-19T09:38:56.520Z,990.99
2017-11-19T09:40:03.363Z,990.96
2017-11-19T09:41:10.106Z,990.99
2017-11-19T09:42:16.853Z,991.04
2017-11-19T09:43:23.618Z,991.08
2017-11-19T09:44:30.482Z,991.05
2017-11-19T09:45:37.373Z,991.09
2017-11-19T09:46:44.184Z,991.13
2017-11-19T09:47:51.223Z,991.14
2017-11-19T09:48:57.954Z,991.22
2017-11-19T09:50:04.766Z,991.21
2017-11-19T09:51:11.554Z,991.18
2017-11-19T09:52:18.254Z,991.11
2017-11-19T09:53:25.062Z,991.16
2017-11-19T09:54:31.974Z,991.20
2017-11-19T09:55:38.881Z,991.22
2017-11-19T09:56:45.886Z,991.14
2017-11-19T09:57:52.684Z,991.20
2017-11-19T09:58:59.441Z,991.22
2017-11-19T10:00:06.334Z,991.20
2017-11-19T10:01:13.345Z,991.13
2017-11-19T10:02:20.272Z,991.20
2017-11-19T10:03:27.150Z,991.18
2017-11-19T10:04:34.233Z,991.25
2017-11-19T10:05:41.066Z,991.24
2017-11-19T10:06:48.101Z,991.24
2017-11-19T10:07:54.857Z,991.20
2017-11-19T10:09:01.596Z,991.25
2017-11-19T10:10:08.640Z,991.21
2017-11-19T10:11:15.514Z,991.27
2017-11-19T10:12:22.407Z,991.23
2017-11-19T10:13:29.701Z,991.21
2017-11-19T10:14:36.506Z,991.28
2017-11-19T10:15:43.286Z,991.21
2017-11-19T10:16:50.227Z,991.26
2017-11-19T10:17:57.037Z,991.22
2017-11-19T10:19:04.173Z,991.17
2017-11-19T10:20:10.561Z,991.11
2017-11-19T10:21:17.685Z,991.21
2017-11-19T10:22:24.691Z,991.22
2017-11-19T10:23:31.783Z,991.27
2017-11-19T10:24:38.706Z,991.19
2017-11-19T10:25:45.674Z,991.20
2017-11-19T10:26:53.356Z,991.31
2017-11-19T10:27:59.779Z,991.34
2017-11-19T10:29:06.966Z,991.29
2017-11-19T10:30:13.989Z,991.34
2017-11-19T10:31:20.426Z,991.31
2017-11-19T10:32:27.462Z,991.29
2017-11-19T10:33:34.395Z,991.28
2017-11-19T10:34:41.403Z,991.31
2017-11-19T10:35:48.383Z,991.29
2017-11-19T10:36:55.432Z,991.38
2017-11-19T10:38:02.484Z,991.35
2017-11-19T10:39:09.462Z,991.28
2017-11-19T10:40:16.426Z,991.37
2017-11-19T10:41:23.425Z,991.34
2017-11-19T10:42:30.234Z,991.31
2017-11-19T10:43:37.319Z,991.33
2017-11-19T10:44:44.536Z,991.39
2017-11-19T10:45:51.255Z,991.38
2017-11-19T10:46:58.341Z,991.36
2017-11-19T10:48:05.396Z,991.37
2017-11-19T10:49:12.514Z,991.36
2017-11-19T10:50:19.489Z,991.43
2017-11-19T10:51:26.385Z,991.38
2017-11-19T10:52:33.419Z,991.40
2017-11-19T10:53:40.363Z,991.44
2017-11-19T10:54:47.330Z,991.40
2017-11-19T10:55:54.546Z,991.43
2017-11-19T10:57:01.652Z,991.47
2017-11-19T10:58:08.764Z,991.52
2017-11-19T10:59:15.819Z,991.56
2017-11-19T11:00:22.832Z,991.54
2017-11-19T11:01:29.815Z,991.50
2017-11-19T11:02:36.601Z,991.49
2017-11-19T11:03:43.635Z,991.55
2017-11-19T11:04:50.428Z,991.68
2017-11-19T11:05:57.413Z,991.64
2017-11-19T11:07:04.374Z,991.60
2017-11-19T11:08:11.195Z,991.60
2017-11-19T11:09:18.179Z,991.63
2017-11-19T11:10:25.229Z,991.68
2017-11-19T11:11:32.205Z,991.67
2017-11-19T11:12:39.197Z,991.60
2017-11-19T11:13:46.197Z,991.63
2017-11-19T11:14:53.192Z,991.72
2017-11-19T11:16:00.344Z,991.63
2017-11-19T11:17:07.402Z,991.62
2017-11-19T11:18:14.295Z,991.65
2017-11-19T11:19:21.274Z,991.54
2017-11-19T11:20:28.141Z,991.63
2017-11-19T11:21:35.213Z,991.65
2017-11-19T11:22:42.081Z,991.65
2017-11-19T11:23:49.063Z,991.64
2017-11-19T11:24:55.906Z,991.61
2017-11-19T11:26:02.991Z,991.67
2017-11-19T11:27:10.119Z,991.57
2017-11-19T11:28:17.118Z,991.67
2017-11-19T11:29:23.996Z,991.61
2017-11-19T11:30:31.154Z,991.62
2017-11-19T11:31:38.152Z,991.62
2017-11-19T11:32:45.105Z,991.70
2017-11-19T11:33:51.974Z,991.66
2017-11-19T11:34:58.885Z,991.70
2017-11-19T11:36:05.858Z,991.72
2017-11-19T11:37:12.650Z,991.66
2017-11-19T11:38:19.586Z,991.71
2017-11-19T11:39:26.478Z,991.65
2017-11-19T11:40:33.252Z,991.62
2017-11-19T11:41:40.211Z,991.65
2017-11-19T11:42:47.228Z,991.61
2017-11-19T11:43:54.088Z,991.54
2017-11-19T11:45:01.081Z,991.57
2017-11-19T11:46:08.203Z,991.58
2017-11-19T11:47:15.208Z,991.58
2017-11-19T11:48:22.233Z,991.55
2017-11-19T11:49:29.303Z,991.55
2017-11-19T11:50:36.317Z,991.50
2017-11-19T11:51:43.427Z,991.55
2017-11-19T11:52:50.473Z,991.48
2017-11-19T11:53:57.570Z,991.58
2017-11-19T11:55:04.502Z,991.50
2017-11-19T11:56:11.426Z,991.50
2017-11-19T11:57:18.450Z,991.55
2017-11-19T11:58:25.618Z,991.57
2017-11-19T11:59:32.631Z,991.62
2017-11-19T12:00:39.647Z,991.59
2017-11-19T12:01:46.502Z,991.72
2017-11-19T12:02:53.778Z,991.64
2017-11-19T12:04:00.247Z,991.59
2017-11-19T12:05:07.210Z,991.60
2017-11-19T12:06:14.149Z,991.66
2017-11-19T12:07:21.171Z,991.61
2017-11-19T12:08:28.156Z,991.71
2017-11-19T12:09:35.094Z,991.71
2017-11-19T12:10:42.117Z,991.69
2017-11-19T12:11:48.909Z,991.68
2017-11-19T12:12:55.787Z,991.68
2017-11-19T12:14:02.745Z,991.71
2017-11-19T12:15:09.638Z,991.71
2017-11-19T12:16:16.597Z,991.71
2017-11-19T12:17:23.411Z,991.75
2017-11-19T12:18:30.267Z,991.72
2017-11-19T12:19:37.327Z,991.74
2017-11-19T12:20:44.330Z,991.76
2017-11-19T12:21:51.309Z,991.74
2017-11-19T12:22:58.070Z,991.71
2017-11-19T12:24:05.114Z,991.78
2017-11-19T12:25:12.226Z,991.78
2017-11-19T12:26:18.654Z,991.77
2017-11-19T12:27:25.600Z,991.73
2017-11-19T12:28:32.670Z,991.84
2017-11-19T12:29:39.675Z,991.78
2017-11-19T12:30:46.413Z,991.84
2017-11-19T12:31:53.516Z,991.81
2017-11-19T12:33:00.675Z,991.76
2017-11-19T12:34:07.700Z,991.81
2017-11-19T12:35:14.705Z,991.82
2017-11-19T12:36:21.474Z,991.83
2017-11-19T12:37:28.420Z,991.82
2017-11-19T12:38:35.368Z,991.83
2017-11-19T12:39:42.151Z,991.71
2017-11-19T12:40:48.974Z,991.74
2017-11-19T12:41:56.033Z,991.77
2017-11-19T12:43:02.937Z,991.79
2017-11-19T12:44:09.718Z,991.77
2017-11-19T12:45:16.761Z,991.74
2017-11-19T12:46:23.825Z,991.77
2017-11-19T12:47:30.721Z,991.71
2017-11-19T12:48:37.988Z,991.77
2017-11-19T12:49:44.264Z,991.73
2017-11-19T12:50:51.350Z,991.62
2017-11-19T12:51:58.351Z,991.61
2017-11-19T12:53:05.215Z,991.67
2017-11-19T12:54:12.303Z,991.66
2017-11-19T12:55:19.265Z,991.70
2017-11-19T12:56:26.161Z,991.76
2017-11-19T12:57:33.018Z,991.69
2017-11-19T12:58:39.710Z,991.65
2017-11-19T12:59:46.626Z,991.65
2017-11-19T13:00:53.391Z,991.66
2017-11-19T13:02:00.373Z,991.60
2017-11-19T13:03:07.239Z,991.65
2017-11-19T13:04:14.165Z,991.67
2017-11-19T13:05:21.069Z,991.71
2017-11-19T13:06:28.126Z,991.73
2017-11-19T13:07:35.168Z,991.69
2017-11-19T13:08:42.153Z,991.71
2017-11-19T13:09:49.175Z,991.72
2017-11-19T13:10:56.047Z,991.70
2017-11-19T13:12:03.054Z,991.70
2017-11-19T13:13:09.844Z,991.69
2017-11-19T13:14:16.900Z,991.66
2017-11-19T13:15:23.966Z,991.73
2017-11-19T13:16:30.863Z,991.69
2017-11-19T13:17:37.811Z,991.81
2017-11-19T13:18:44.846Z,991.84
2017-11-19T13:19:51.643Z,991.72
2017-11-19T13:20:58.733Z,991.78
2017-11-19T13:22:05.786Z,991.72
2017-11-19T13:23:12.616Z,991.83
2017-11-19T13:24:19.464Z,991.82
2017-11-19T13:25:26.494Z,991.92
2017-11-19T13:26:33.653Z,991.80
2017-11-19T13:27:40.660Z,991.85
2017-11-19T13:28:47.590Z,991.89
2017-11-19T13:29:54.590Z,991.90
2017-11-19T13:31:01.562Z,991.88
2017-11-19T13:32:08.418Z,991.88
2017-11-19T13:33:15.356Z,991.89
2017-11-19T13:34:22.366Z,991.93
2017-11-19T13:35:29.414Z,991.93
2017-11-19T13:36:36.445Z,991.94
2017-11-19T13:37:43.546Z,991.92
2017-11-19T13:38:50.594Z,991.88
2017-11-19T13:39:57.451Z,991.88
2017-11-19T13:41:04.352Z,991.92
2017-11-19T13:42:11.345Z,991.94
2017-11-19T13:43:18.261Z,991.92
2017-11-19T13:44:25.193Z,991.97
2017-11-19T13:45:32.130Z,991.90
2017-11-19T13:46:39.098Z,991.87
2017-11-19T13:47:46.091Z,991.87
2017-11-19T13:48:53.123Z,991.89
2017-11-19T13:50:00.058Z,991.82
2017-11-19T13:51:07.230Z,991.94
2017-11-19T13:52:14.189Z,991.91
2017-11-19T13:53:21.229Z,991.86
2017-11-19T13:54:28.258Z,991.91